Time;durP1;ratioP1;P1;durP2;ratioP2;P2;SDS_P1;SDS_P2;PMS_P1;PMS_P2;Temp;Humidity;BMP_temperature;BMP_pressure;BME280_temperature;BME280_humidity;BME280_pressure;Samples;Min_cycle;Max_cycle;Signal;HPM_P1;HPM_P2
2022/12/24 00:00:07;;;;;;;6.15;1.67;;;;;;;11.07;100.00;98962.41;343979;28;922;-78
2022/12/24 00:00:20;;;;;;;5.28;1.67;;;;;;;11.08;100.00;98971.88;343000;28;1299;-79
2022/12/24 00:00:32;;;;;;;5.25;1.58;;;;;;;11.08;100.00;98961.47;343795;28;1240;-78
2022/12/24 00:00:45;;;;;;;5.90;1.98;;;;;;;11.05;100.00;98956.44;342755;28;1090;-79
2022/12/24 00:00:57;;;;;;;5.10;1.98;;;;;;;11.06;100.00;98942.50;342526;28;1173;-79
2022/12/24 00:01:09;;;;;;;7.00;1.98;;;;;;;11.09;100.00;98965.78;341257;29;1220;-78
2022/12/24 00:01:21;;;;;;;7.38;1.63;;;;;;;11.06;100.00;98955.50;341922;28;1634;-79
2022/12/24 00:01:33;;;;;;;7.38;1.65;;;;;;;11.08;100.00;98947.66;344328;28;1184;-77
2022/12/24 00:01:45;;;;;;;5.53;1.50;;;;;;;11.11;100.00;98957.91;345163;28;1217;-78
2022/12/24 00:01:57;;;;;;;5.50;1.98;;;;;;;11.02;100.00;98943.56;343382;28;1817;-78
2022/12/24 00:02:09;;;;;;;6.85;2.22;;;;;;;11.03;100.00;98954.81;344459;28;1085;-77
2022/12/24 00:02:21;;;;;;;7.88;2.00;;;;;;;11.02;100.00;98953.13;346246;28;1273;-77
2022/12/24 00:02:33;;;;;;;8.27;1.98;;;;;;;10.97;100.00;98955.94;348024;28;1027;-79
2022/12/24 00:02:46;;;;;;;6.47;1.55;;;;;;;11.02;100.00;98940.97;347413;28;1810;-79
2022/12/24 00:02:58;;;;;;;5.55;1.40;;;;;;;11.05;100.00;98959.03;345185;28;1451;-78
2022/12/24 00:03:10;;;;;;;7.07;1.80;;;;;;;11.05;100.00;98953.84;345269;28;1153;-78
2022/12/24 00:03:22;;;;;;;7.10;1.92;;;;;;;11.03;100.00;98960.88;343433;28;1375;-78
2022/12/24 00:03:36;;;;;;;6.70;1.73;;;;;;;11.05;100.00;98969.44;342808;28;897;-79
2022/12/24 00:03:49;;;;;;;6.53;2.00;;;;;;;11.04;100.00;98965.13;343953;28;776;-79
2022/12/24 00:04:01;;;;;;;6.25;2.00;;;;;;;11.04;100.00;98974.72;343810;28;1171;-77
2022/12/24 00:04:13;;;;;;;6.25;2.00;;;;;;;11.03;100.00;98971.28;343645;28;1044;-79
2022/12/24 00:04:25;;;;;;;5.30;1.85;;;;;;;11.03;100.00;98950.47;344926;28;1287;-78
2022/12/24 00:04:37;;;;;;;6.63;1.85;;;;;;;11.01;100.00;98967.91;345108;28;1704;-78
2022/12/24 00:04:49;;;;;;;6.30;1.73;;;;;;;11.05;100.00;98974.63;344959;28;1216;-79
2022/12/24 00:05:08;;;;;;;6.82;1.60;;;;;;;11.02;100.00;98948.75;343614;28;1198;-79
2022/12/24 00:05:20;;;;;;;6.70;1.60;;;;;;;11.02;100.00;98953.97;342657;28;1700;-78
2022/12/24 00:05:32;;;;;;;6.57;1.75;;;;;;;11.06;100.00;98947.72;345800;28;771;-77
2022/12/24 00:05:44;;;;;;;6.55;1.65;;;;;;;11.00;100.00;98966.19;345292;28;1091;-77
2022/12/24 00:05:56;;;;;;;8.70;1.75;;;;;;;11.03;100.00;98949.59;345176;28;1220;-79
2022/12/24 00:06:14;;;;;;;7.50;1.70;;;;;;;10.99;100.00;98965.34;344919;28;1612;-79
2022/12/24 00:06:26;;;;;;;4.18;1.65;;;;;;;10.94;100.00;98951.69;343763;28;1174;-79
2022/12/24 00:06:38;;;;;;;4.78;1.67;;;;;;;10.94;100.00;98961.28;343879;28;1253;-79
2022/12/24 00:06:50;;;;;;;5.10;1.55;;;;;;;10.92;100.00;98947.50;343730;28;1915;-78
2022/12/24 00:07:02;;;;;;;5.93;1.50;;;;;;;10.92;100.00;98952.69;344060;28;1080;-78
2022/12/24 00:07:14;;;;;;;7.75;1.83;;;;;;;10.89;100.00;98955.44;345197;28;1321;-79
2022/12/24 00:07:27;;;;;;;8.25;2.40;;;;;;;10.86;100.00;98921.78;344224;28;736;-79
2022/12/24 00:07:39;;;;;;;8.25;2.17;;;;;;;10.88;100.00;98940.75;341383;29;1166;-78
2022/12/24 00:07:51;;;;;;;7.50;1.95;;;;;;;10.97;100.00;98940.34;341411;28;1029;-77
2022/12/24 00:08:03;;;;;;;6.32;1.58;;;;;;;10.97;100.00;98940.34;342443;28;1039;-76
2022/12/24 00:08:15;;;;;;;5.25;1.88;;;;;;;10.97;100.00;98940.34;342411;28;1536;-77
2022/12/24 00:08:27;;;;;;;7.05;1.90;;;;;;;10.93;100.00;98936.19;342139;28;1140;-78
2022/12/24 00:08:40;;;;;;;8.23;2.00;;;;;;;10.94;100.00;98940.47;342408;28;1212;-79
2022/12/24 00:08:52;;;;;;;7.90;1.95;;;;;;;10.92;100.00;98955.28;342814;28;1192;-78
2022/12/24 00:09:04;;;;;;;6.63;1.88;;;;;;;10.89;100.00;98963.25;341284;29;1088;-79
2022/12/24 00:09:16;;;;;;;6.53;1.58;;;;;;;10.89;100.00;98943.28;341528;28;1559;-78
2022/12/24 00:09:28;;;;;;;6.88;1.60;;;;;;;10.87;100.00;98944.28;340941;28;1529;-79
2022/12/24 00:09:40;;;;;;;6.50;1.60;;;;;;;10.87;100.00;98945.09;342841;28;1320;-79
2022/12/24 00:09:51;;;;;;;5.03;1.58;;;;;;;10.91;100.00;98951.03;343639;28;1587;-79
2022/12/24 00:10:05;;;;;;;6.80;1.63;;;;;;;10.87;100.00;98949.47;343783;28;1079;-79
2022/12/24 00:10:17;;;;;;;9.38;2.00;;;;;;;10.89;100.00;98932.06;343350;28;1055;-78
2022/12/24 00:10:29;;;;;;;9.52;2.15;;;;;;;10.90;100.00;98938.91;342036;28;1634;-78
2022/12/24 00:10:40;;;;;;;7.85;2.08;;;;;;;10.91;100.00;98940.63;341608;28;1247;-78
2022/12/24 00:10:53;;;;;;;7.43;1.90;;;;;;;10.89;100.00;98952.84;341485;29;1100;-77
2022/12/24 00:11:05;;;;;;;7.13;1.58;;;;;;;10.90;100.00;98920.72;341470;28;1159;-79
2022/12/24 00:11:18;;;;;;;6.38;1.85;;;;;;;10.92;100.00;98937.09;342658;28;1771;-77
2022/12/24 00:11:30;;;;;;;7.03;1.90;;;;;;;10.88;100.00;98951.16;342479;28;1610;-79
2022/12/24 00:11:41;;;;;;;8.30;2.05;;;;;;;10.89;100.00;98942.44;344046;28;1109;-80
2022/12/24 00:11:53;;;;;;;8.60;2.08;;;;;;;10.88;100.00;98925.16;343621;28;1103;-79
2022/12/24 00:12:06;;;;;;;7.38;2.17;;;;;;;10.79;100.00;98922.06;343106;28;1548;-80
2022/12/24 00:12:18;;;;;;;7.53;2.13;;;;;;;10.84;100.00;98934.84;344029;28;1218;-80
2022/12/24 00:12:30;;;;;;;6.05;1.92;;;;;;;10.85;100.00;98935.69;343231;28;1335;-80
2022/12/24 00:12:42;;;;;;;6.20;2.17;;;;;;;10.85;100.00;98931.34;343776;28;1158;-80
2022/12/24 00:12:54;;;;;;;5.10;2.10;;;;;;;10.88;100.00;98938.97;343747;28;1170;-80
2022/12/24 00:13:06;;;;;;;3.97;1.58;;;;;;;10.91;100.00;98940.63;343850;28;1145;-80
2022/12/24 00:13:19;;;;;;;5.22;1.45;;;;;;;10.92;100.00;98934.50;344333;28;1299;-79
2022/12/24 00:13:32;;;;;;;7.72;1.92;;;;;;;10.93;100.00;98933.59;343166;28;1885;-80
2022/12/24 00:13:44;;;;;;;9.95;2.42;;;;;;;10.90;100.00;98933.72;341823;28;1688;-80
2022/12/24 00:13:56;;;;;;;10.40;2.40;;;;;;;10.86;100.00;98932.16;342570;28;1047;-80
2022/12/24 00:14:08;;;;;;;9.30;2.65;;;;;;;10.87;100.00;98939.06;342597;28;1065;-80
2022/12/24 00:14:20;;;;;;;9.00;2.28;;;;;;;10.85;100.00;98940.91;342846;28;1078;-80
2022/12/24 00:14:32;;;;;;;9.32;1.80;;;;;;;10.90;100.00;98918.13;343239;28;1252;-80
2022/12/24 00:14:44;;;;;;;7.40;1.90;;;;;;;10.83;100.00;98933.16;341041;28;1737;-79
2022/12/24 00:14:56;;;;;;;5.15;2.00;;;;;;;10.81;100.00;98942.78;341060;29;1115;-80
2022/12/24 00:15:08;;;;;;;7.68;2.63;;;;;;;10.80;100.00;98933.28;340508;28;1723;-80
2022/12/24 00:15:21;;;;;;;7.60;2.47;;;;;;;10.75;100.00;98941.31;340443;28;1324;-80
2022/12/24 00:15:33;;;;;;;5.22;1.88;;;;;;;10.81;100.00;98936.75;341419;29;1044;-79
2022/12/24 00:15:45;;;;;;;4.90;1.52;;;;;;;10.82;100.00;98952.25;339933;28;1657;-79
2022/12/24 00:15:57;;;;;;;6.03;1.75;;;;;;;10.78;100.00;98930.78;341676;29;1193;-79
2022/12/24 00:16:10;;;;;;;7.45;2.00;;;;;;;10.76;100.00;98935.19;341358;29;1192;-80
2022/12/24 00:16:22;;;;;;;7.80;2.15;;;;;;;10.79;100.00;98919.44;341952;28;1201;-80
2022/12/24 00:16:34;;;;;;;7.18;2.30;;;;;;;10.77;100.00;98934.28;342736;28;1218;-80
2022/12/24 00:16:46;;;;;;;7.75;2.97;;;;;;;10.75;100.00;98941.31;342952;28;1326;-80
2022/12/24 00:16:58;;;;;;;8.20;3.05;;;;;;;10.77;100.00;98929.06;343453;28;1769;-79
2022/12/24 00:17:10;;;;;;;8.10;2.55;;;;;;;10.76;100.00;98932.56;341400;28;1194;-80
2022/12/24 00:17:22;;;;;;;8.05;2.33;;;;;;;10.82;100.00;98936.66;342586;28;1165;-80
2022/12/24 00:17:35;;;;;;;7.93;1.92;;;;;;;10.80;100.00;98938.50;344033;28;1133;-78
2022/12/24 00:17:46;;;;;;;7.00;1.55;;;;;;;10.83;100.00;98942.72;342976;28;1075;-79
2022/12/24 00:17:58;;;;;;;7.05;1.58;;;;;;;10.81;100.00;98939.34;343318;28;1786;-79
2022/12/24 00:18:10;;;;;;;7.13;1.88;;;;;;;10.76;100.00;98940.38;344091;28;1605;-80
2022/12/24 00:18:22;;;;;;;6.10;2.13;;;;;;;10.76;100.00;98937.78;342377;28;1233;-80
2022/12/24 00:18:34;;;;;;;7.75;2.60;;;;;;;10.82;100.00;98957.47;341016;28;1703;-80
2022/12/24 00:18:56;;;;;;;7.55;2.20;;;;;;;10.82;100.00;98935.81;341114;29;1058;-80
2022/12/24 00:19:08;;;;;;;6.68;1.92;;;;;;;10.84;100.00;98939.19;340425;28;2114;-80
2022/12/24 00:19:20;;;;;;;8.38;2.00;;;;;;;10.81;100.00;98947.16;342465;28;1503;-80
2022/12/24 00:19:32;;;;;;;8.65;2.00;;;;;;;10.75;100.00;98962.09;341287;29;1060;-80
2022/12/24 00:19:44;;;;;;;8.18;1.80;;;;;;;10.81;100.00;98949.75;341417;29;715;-79
2022/12/24 00:19:56;;;;;;;5.90;1.80;;;;;;;10.85;100.00;98939.13;340921;29;1589;-79
2022/12/24 00:20:08;;;;;;;7.53;2.10;;;;;;;10.83;100.00;98955.72;340744;29;1461;-79
2022/12/24 00:20:20;;;;;;;8.05;2.10;;;;;;;10.81;100.00;98947.16;341474;28;1663;-80
2022/12/24 00:20:32;;;;;;;8.27;2.00;;;;;;;10.81;100.00;98944.56;343689;28;1180;-79
2022/12/24 00:20:47;;;;;;;6.90;2.00;;;;;;;10.79;100.00;98952.41;342712;28;1600;-80
2022/12/24 00:21:00;;;;;;;6.53;2.08;;;;;;;10.82;100.00;98935.81;342717;28;997;-79
2022/12/24 00:21:14;;;;;;;7.05;2.28;;;;;;;10.82;100.00;98943.63;342633;28;2025;-79
2022/12/24 00:21:26;;;;;;;8.50;2.45;;;;;;;10.76;100.00;98936.94;343416;28;1773;-79
2022/12/24 00:21:38;;;;;;;7.53;2.00;;;;;;;10.81;100.00;98948.00;343636;28;1068;-80
2022/12/24 00:21:50;;;;;;;7.75;2.10;;;;;;;10.86;100.00;98937.38;342176;28;1281;-80
2022/12/24 00:22:02;;;;;;;6.18;1.90;;;;;;;10.84;100.00;98936.59;342445;28;1188;-80
2022/12/24 00:22:14;;;;;;;5.20;1.80;;;;;;;10.82;100.00;98936.66;342282;28;1582;-80
2022/12/24 00:22:26;;;;;;;6.43;1.98;;;;;;;10.83;100.00;98942.72;344047;28;1070;-79
2022/12/24 00:22:38;;;;;;;8.65;2.15;;;;;;;10.82;100.00;98936.66;343574;28;1277;-80
2022/12/24 00:22:50;;;;;;;7.65;2.05;;;;;;;10.82;100.00;98922.81;343273;28;1101;-79
2022/12/24 00:23:02;;;;;;;5.38;1.92;;;;;;;10.81;100.00;98928.97;342580;28;1584;-80
2022/12/24 00:23:16;;;;;;;5.78;2.45;;;;;;;10.85;100.00;98931.34;342580;28;1040;-80
2022/12/24 00:23:28;;;;;;;8.82;2.53;;;;;;;10.82;100.00;98925.44;342290;28;1610;-80
2022/12/24 00:23:40;;;;;;;8.90;2.53;;;;;;;10.74;100.00;98926.59;344486;28;1074;-79
2022/12/24 00:23:52;;;;;;;9.45;2.78;;;;;;;10.65;100.00;98934.00;343678;28;1059;-80
2022/12/24 00:24:04;;;;;;;7.30;2.35;;;;;;;10.72;100.00;98925.81;344157;28;1674;-79
2022/12/24 00:24:16;;;;;;;7.97;2.05;;;;;;;10.74;100.00;98934.41;343719;28;1182;-78
2022/12/24 00:24:28;;;;;;;7.82;1.90;;;;;;;10.79;100.00;98922.06;342775;28;1742;-79
2022/12/24 00:24:41;;;;;;;6.30;1.73;;;;;;;10.78;100.00;98922.97;343762;28;1710;-80
2022/12/24 00:24:53;;;;;;;8.25;1.75;;;;;;;10.74;100.00;98929.19;342353;28;1163;-80
2022/12/24 00:25:05;;;;;;;8.38;1.70;;;;;;;10.76;100.00;98931.75;342987;28;1806;-80
2022/12/24 00:25:17;;;;;;;7.70;1.90;;;;;;;10.73;100.00;98922.34;344272;28;1125;-79
2022/12/24 00:25:29;;;;;;;6.95;1.83;;;;;;;10.74;100.00;98937.00;344812;28;1613;-78
2022/12/24 00:25:41;;;;;;;9.20;1.70;;;;;;;10.77;100.00;98934.28;344733;28;710;-77
2022/12/24 00:25:53;;;;;;;11.10;1.67;;;;;;;10.82;100.00;98938.44;345023;28;1031;-79
2022/12/24 00:26:05;;;;;;;12.35;1.80;;;;;;;10.79;100.00;98927.25;345243;28;1019;-79
2022/12/24 00:26:17;;;;;;;12.43;2.05;;;;;;;10.84;100.00;98940.03;345608;28;1352;-79
2022/12/24 00:26:29;;;;;;;10.63;1.90;;;;;;;10.90;100.00;98928.53;346613;28;1018;-79
2022/12/24 00:26:41;;;;;;;8.57;1.83;;;;;;;10.94;100.00;98940.47;345684;28;1723;-80
2022/12/24 00:26:53;;;;;;;7.40;2.05;;;;;;;10.93;100.00;98933.59;344947;28;1143;-80
2022/12/24 00:27:05;;;;;;;7.60;2.25;;;;;;;10.94;99.98;98937.88;344580;28;903;-80
2022/12/24 00:27:17;;;;;;;7.05;2.03;;;;;;;10.99;99.49;98941.13;344998;28;1082;-79
2022/12/24 00:27:29;;;;;;;5.65;1.85;;;;;;;10.99;99.68;98941.13;344937;28;1046;-80
2022/12/24 00:27:41;;;;;;;4.63;1.67;;;;;;;11.02;99.46;98937.53;344351;28;1716;-80
2022/12/24 00:27:53;;;;;;;4.80;1.80;;;;;;;11.03;99.21;98945.25;344831;28;1103;-80
2022/12/24 00:28:05;;;;;;;5.85;2.15;;;;;;;10.99;99.31;98938.50;344720;28;2169;-80
2022/12/24 00:28:17;;;;;;;7.43;2.35;;;;;;;11.05;99.09;98953.84;344835;28;1118;-80
2022/12/24 00:28:29;;;;;;;7.85;2.13;;;;;;;11.04;98.83;98946.94;345207;28;1212;-80
2022/12/24 00:28:41;;;;;;;7.18;2.00;;;;;;;11.09;98.44;98942.38;345037;28;1987;-79
2022/12/24 00:28:53;;;;;;;5.97;1.80;;;;;;;11.08;98.48;98932.88;344343;28;1177;-79
2022/12/24 00:29:05;;;;;;;6.45;1.98;;;;;;;11.11;98.67;98942.31;344901;28;1007;-79
2022/12/24 00:29:17;;;;;;;6.28;2.00;;;;;;;11.11;98.50;98937.13;345757;28;1081;-79
2022/12/24 00:29:29;;;;;;;5.97;1.92;;;;;;;11.12;98.62;98924.00;347684;28;1242;-76
2022/12/24 00:29:41;;;;;;;5.75;1.80;;;;;;;11.07;98.36;98940.78;346428;28;1221;-78
2022/12/24 00:29:53;;;;;;;5.20;1.77;;;;;;;11.17;98.00;98939.44;345957;28;1538;-79
2022/12/24 00:30:06;;;;;;;5.80;1.58;;;;;;;11.18;97.61;98939.34;346576;28;1038;-80
2022/12/24 00:30:18;;;;;;;6.10;1.42;;;;;;;11.24;97.91;98939.97;346608;28;1282;-79
2022/12/24 00:30:30;;;;;;;5.82;1.58;;;;;;;11.27;97.60;98942.41;347386;28;1105;-79
2022/12/24 00:30:42;;;;;;;6.72;2.08;;;;;;;11.27;97.26;98942.41;345350;28;1077;-79
2022/12/24 00:30:54;;;;;;;8.77;2.83;;;;;;;11.20;97.33;98942.72;342885;28;1427;-80
2022/12/24 00:31:12;;;;;;;8.20;2.97;;;;;;;11.20;97.90;98945.31;342685;28;1583;-80
2022/12/24 00:31:24;;;;;;;6.55;2.92;;;;;;;11.25;97.45;98942.50;344707;28;1439;-79
2022/12/24 00:31:36;;;;;;;7.38;3.30;;;;;;;11.24;96.98;98951.22;342608;28;1257;-80
2022/12/24 00:31:48;;;;;;;7.20;2.90;;;;;;;11.24;96.87;98937.38;342533;28;1248;-79
2022/12/24 00:32:00;;;;;;;6.32;2.22;;;;;;;11.30;96.90;98950.09;342847;28;1757;-79
2022/12/24 00:32:12;;;;;;;4.47;1.83;;;;;;;11.29;96.61;98945.78;343692;28;1067;-79
2022/12/24 00:32:24;;;;;;;4.63;1.60;;;;;;;11.28;96.65;98949.31;341585;28;1279;-80
2022/12/24 00:32:37;;;;;;;5.00;1.60;;;;;;;11.31;96.49;98950.03;342609;28;1051;-80
2022/12/24 00:32:49;;;;;;;5.95;1.60;;;;;;;11.34;96.06;98949.88;343925;28;1226;-78
2022/12/24 00:33:01;;;;;;;6.57;1.50;;;;;;;11.28;95.90;98952.75;343633;28;1645;-78
2022/12/24 00:33:13;;;;;;;7.22;1.50;;;;;;;11.29;95.98;98956.19;346417;28;1055;-79
2022/12/24 00:33:31;;;;;;;7.72;1.80;;;;;;;11.25;96.22;98965.94;344886;28;1384;-79
2022/12/24 00:33:47;;;;;;;7.75;2.10;;;;;;;11.38;95.69;98958.38;345414;28;1160;-78
2022/12/24 00:33:59;;;;;;;7.82;2.15;;;;;;;11.43;95.70;98959.03;345615;28;1043;-78
2022/12/24 00:34:11;;;;;;;9.18;2.00;;;;;;;11.40;95.24;98960.00;343211;28;1518;-80
2022/12/24 00:34:23;;;;;;;8.65;2.08;;;;;;;11.45;95.30;98958.94;343221;28;2071;-78
2022/12/24 00:34:36;;;;;;;9.18;1.90;;;;;;;11.42;95.51;98953.88;344196;28;737;-78
2022/12/24 00:34:48;;;;;;;6.85;1.75;;;;;;;11.35;95.50;98961.16;343556;28;1084;-79
2022/12/24 00:35:00;;;;;;;5.38;1.75;;;;;;;11.30;96.05;98958.72;343735;28;1101;-78
2022/12/24 00:35:12;;;;;;;6.85;2.03;;;;;;;11.33;96.02;98957.78;343103;28;1941;-80
2022/12/24 00:35:24;;;;;;;8.07;2.35;;;;;;;11.38;96.07;98963.59;344124;28;1427;-79
2022/12/24 00:35:38;;;;;;;7.82;2.15;;;;;;;11.36;95.85;98966.25;345099;28;1055;-80
2022/12/24 00:35:51;;;;;;;6.40;2.20;;;;;;;11.39;95.52;98965.28;342901;28;1573;-79
2022/12/24 00:36:04;;;;;;;6.60;1.88;;;;;;;11.38;95.16;98961.81;343591;28;1790;-80
2022/12/24 00:36:17;;;;;;;6.53;1.75;;;;;;;11.31;95.52;98960.44;343831;28;1163;-79
2022/12/24 00:36:29;;;;;;;8.07;1.75;;;;;;;11.32;95.43;98945.66;342387;28;1091;-80
2022/12/24 00:36:41;;;;;;;9.45;2.00;;;;;;;11.32;95.35;98953.47;341740;29;810;-79
2022/12/24 00:36:53;;;;;;;9.48;1.80;;;;;;;11.33;95.92;98950.81;341215;29;1022;-79
2022/12/24 00:37:05;;;;;;;7.55;1.60;;;;;;;11.38;95.63;98963.59;339910;29;1009;-80
2022/12/24 00:37:17;;;;;;;6.57;1.40;;;;;;;11.40;95.33;98953.94;340268;28;1331;-78
2022/12/24 00:37:29;;;;;;;7.50;1.67;;;;;;;11.45;95.36;98946.78;341211;29;1088;-78
2022/12/24 00:37:41;;;;;;;8.32;1.90;;;;;;;11.45;95.13;98954.59;341431;29;1207;-78
2022/12/24 00:37:53;;;;;;;5.88;1.90;;;;;;;11.41;95.20;98960.84;342324;28;1164;-79
2022/12/24 00:38:06;;;;;;;5.55;1.70;;;;;;;11.45;95.46;98956.31;340997;28;1772;-78
2022/12/24 00:38:18;;;;;;;6.45;1.60;;;;;;;11.40;95.74;98959.16;342884;28;1230;-79
2022/12/24 00:38:30;;;;;;;5.80;1.40;;;;;;;11.36;95.31;98957.63;342585;28;1555;-79
2022/12/24 00:38:43;;;;;;;5.18;1.40;;;;;;;11.44;94.82;98950.28;344588;28;1703;-79
2022/12/24 00:38:55;;;;;;;5.05;1.30;;;;;;;11.42;94.90;98959.91;345069;28;1019;-80
2022/12/24 00:39:07;;;;;;;6.43;1.50;;;;;;;11.38;94.75;98945.38;345505;28;1680;-79
2022/12/24 00:39:19;;;;;;;7.97;1.73;;;;;;;11.34;94.78;98952.47;345060;28;1182;-79
2022/12/24 00:39:31;;;;;;;7.60;1.98;;;;;;;11.30;95.02;98948.31;345207;28;1864;-79
2022/12/24 00:39:43;;;;;;;6.60;1.77;;;;;;;11.33;95.40;98957.78;345325;28;939;-79
2022/12/24 00:39:55;;;;;;;6.93;1.50;;;;;;;11.34;95.17;98959.44;345055;28;1130;-79
2022/12/24 00:40:07;;;;;;;6.90;1.48;;;;;;;11.34;95.20;98964.66;345199;28;1228;-79
2022/12/24 00:40:19;;;;;;;5.82;1.52;;;;;;;11.31;94.86;98965.63;344675;28;1261;-80
2022/12/24 00:40:32;;;;;;;5.65;1.58;;;;;;;11.36;95.31;98962.81;346010;28;1276;-79
2022/12/24 00:40:44;;;;;;;5.20;1.50;;;;;;;11.36;95.10;98958.44;346233;28;1031;-78
2022/12/24 00:41:00;;;;;;;5.78;1.58;;;;;;;11.36;94.97;98955.00;345266;28;2068;-77
2022/12/24 00:41:29;;;;;;;6.32;1.92;;;;;;;11.38;94.77;98959.22;345154;28;1109;-80
2022/12/24 00:41:41;;;;;;;5.82;1.52;;;;;;;11.32;94.87;98948.25;343008;28;1709;-79
2022/12/24 00:41:52;;;;;;;6.53;1.58;;;;;;;11.28;95.16;98949.31;345091;28;1143;-80
2022/12/24 00:42:04;;;;;;;8.98;1.92;;;;;;;11.31;95.26;98949.19;345063;28;1051;-80
2022/12/24 00:42:16;;;;;;;8.23;2.17;;;;;;;11.31;95.63;98955.22;345139;28;1233;-79
2022/12/24 00:42:28;;;;;;;7.07;2.05;;;;;;;11.26;95.23;98961.56;344017;28;721;-79
2022/12/24 00:42:40;;;;;;;5.88;1.90;;;;;;;11.34;95.11;98949.03;343737;28;1233;-80
2022/12/24 00:42:52;;;;;;;6.57;1.73;;;;;;;11.34;95.05;98951.63;343674;28;1071;-79
2022/12/24 00:43:04;;;;;;;9.77;2.08;;;;;;;11.27;95.45;98947.63;343693;28;1169;-79
2022/12/24 00:43:16;;;;;;;9.85;1.90;;;;;;;11.28;95.23;98946.72;343965;28;1153;-79
2022/12/24 00:43:29;;;;;;;7.05;1.77;;;;;;;11.28;95.41;98949.31;342210;28;1431;-79
2022/12/24 00:43:41;;;;;;;5.82;1.40;;;;;;;11.30;95.66;98950.09;342732;28;1195;-79
2022/12/24 00:44:01;;;;;;;7.50;1.75;;;;;;;11.31;95.75;98944.00;343557;28;1126;-80
2022/12/24 00:44:13;;;;;;;6.38;2.00;;;;;;;11.36;95.15;98948.03;342370;28;1222;-79
2022/12/24 00:44:25;;;;;;;6.05;1.70;;;;;;;11.41;95.49;98955.66;342921;28;1226;-79
2022/12/24 00:44:37;;;;;;;6.75;1.55;;;;;;;11.36;94.97;98947.19;343314;28;1530;-79
2022/12/24 00:44:49;;;;;;;6.63;1.45;;;;;;;11.41;94.86;98950.44;343190;28;1879;-79
2022/12/24 00:45:00;;;;;;;6.45;1.42;;;;;;;11.39;95.28;98947.91;343291;28;1566;-79
2022/12/24 00:45:12;;;;;;;6.25;1.65;;;;;;;11.38;94.76;98956.63;343085;28;1535;-78
2022/12/24 00:45:26;;;;;;;8.25;1.75;;;;;;;11.36;94.76;98952.41;344724;28;1346;-79
2022/12/24 00:45:38;;;;;;;8.02;1.80;;;;;;;11.36;94.89;98945.44;343915;28;1029;-79
2022/12/24 00:45:50;;;;;;;8.98;1.90;;;;;;;11.43;94.88;98952.94;344122;28;737;-79
2022/12/24 00:46:02;;;;;;;9.03;2.10;;;;;;;11.36;94.95;98952.41;342857;28;1766;-79
2022/12/24 00:46:14;;;;;;;9.60;2.30;;;;;;;11.26;95.42;98952.00;343218;28;1629;-80
2022/12/24 00:46:29;;;;;;;7.88;2.45;;;;;;;11.28;95.60;98955.38;344841;28;1262;-79
2022/12/24 00:46:41;;;;;;;6.57;1.85;;;;;;;11.29;95.49;98961.41;345309;28;1130;-79
2022/12/24 00:46:53;;;;;;;5.25;1.55;;;;;;;11.32;95.70;98953.47;345215;28;2885;-79
2022/12/24 00:47:05;;;;;;;5.25;1.48;;;;;;;11.29;95.42;98966.59;344407;28;1750;-80
2022/12/24 00:47:23;;;;;;;5.78;1.50;;;;;;;11.29;95.71;98956.19;345896;28;1160;-79
2022/12/24 00:47:35;;;;;;;7.20;1.42;;;;;;;11.24;95.83;98960.78;345124;28;1117;-79
2022/12/24 00:47:47;;;;;;;8.43;1.38;;;;;;;11.27;95.79;98955.44;346525;28;1106;-79
2022/12/24 00:47:59;;;;;;;6.45;1.17;;;;;;;11.31;95.50;98970.00;346453;28;1564;-79
2022/12/24 00:48:11;;;;;;;4.13;1.02;;;;;;;11.30;95.19;98965.69;345783;28;1594;-79
2022/12/24 00:48:23;;;;;;;4.53;1.30;;;;;;;11.31;95.60;98964.81;346152;28;1118;-80
2022/12/24 00:48:35;;;;;;;4.82;1.45;;;;;;;11.38;95.24;98966.19;346327;28;1070;-79
2022/12/24 00:48:47;;;;;;;4.93;1.48;;;;;;;11.40;95.10;98969.56;346569;28;1070;-79
2022/12/24 00:49:00;;;;;;;3.95;1.40;;;;;;;11.37;95.10;98964.53;345116;28;1087;-79
2022/12/24 00:49:13;;;;;;;5.50;1.30;;;;;;;11.37;95.32;98967.13;344397;28;1512;-79
2022/12/24 00:49:25;;;;;;;6.20;1.45;;;;;;;11.34;95.22;98969.84;345011;28;1809;-78
2022/12/24 00:49:37;;;;;;;7.88;1.70;;;;;;;11.30;94.74;98969.16;344492;28;1634;-79
2022/12/24 00:49:48;;;;;;;7.15;1.80;;;;;;;11.33;95.20;98970.78;343798;28;1162;-79
2022/12/24 00:50:01;;;;;;;7.13;1.67;;;;;;;11.29;95.10;98964.00;344276;28;2238;-79
2022/12/24 00:50:13;;;;;;;5.82;1.48;;;;;;;11.30;94.94;98978.72;343679;28;1615;-78
2022/12/24 00:50:25;;;;;;;5.22;1.38;;;;;;;11.32;95.09;98969.06;343573;28;1098;-79
2022/12/24 00:50:37;;;;;;;7.43;1.60;;;;;;;11.33;95.14;98962.97;343796;28;1906;-79
2022/12/24 00:50:50;;;;;;;7.68;1.58;;;;;;;11.26;95.48;98961.56;343828;28;1071;-79
2022/12/24 00:51:02;;;;;;;6.07;1.45;;;;;;;11.22;95.34;98975.63;344282;28;1086;-77
2022/12/24 00:51:15;;;;;;;6.22;1.40;;;;;;;11.25;95.55;98968.53;344503;28;1622;-76
2022/12/24 00:51:27;;;;;;;8.85;1.50;;;;;;;11.29;95.70;98967.47;345031;28;1317;-79
2022/12/24 00:51:39;;;;;;;10.52;1.65;;;;;;;11.26;95.72;98970.19;345003;28;1248;-79
2022/12/24 00:51:51;;;;;;;9.35;1.55;;;;;;;11.25;96.02;98976.34;344886;28;1183;-79
2022/12/24 00:52:03;;;;;;;8.55;1.67;;;;;;;11.17;96.00;98961.06;345376;28;1143;-79
2022/12/24 00:52:15;;;;;;;7.22;1.67;;;;;;;11.25;95.89;98965.06;345320;28;872;-79
2022/12/24 00:52:27;;;;;;;8.02;1.70;;;;;;;11.20;96.03;98973.91;344902;28;1741;-79
2022/12/24 00:52:40;;;;;;;8.68;1.70;;;;;;;11.21;96.25;98959.19;344787;28;1264;-79
2022/12/24 00:52:52;;;;;;;9.23;1.70;;;;;;;11.23;96.51;98965.16;345461;28;1230;-78
2022/12/24 00:53:04;;;;;;;8.93;1.90;;;;;;;11.20;96.15;98973.91;346259;28;1462;-79
2022/12/24 00:53:17;;;;;;;6.38;1.67;;;;;;;11.26;96.45;98977.16;345930;28;1652;-77
2022/12/24 00:53:29;;;;;;;8.55;1.70;;;;;;;11.23;96.14;98983.38;346460;28;1335;-79
2022/12/24 00:53:41;;;;;;;9.77;1.88;;;;;;;11.30;96.39;98973.50;346421;28;1078;-79
2022/12/24 00:53:53;;;;;;;6.72;1.75;;;;;;;11.29;96.29;98966.59;346462;28;1083;-78
2022/12/24 00:54:06;;;;;;;6.45;1.67;;;;;;;11.29;96.17;98971.81;343548;28;1098;-79
2022/12/24 00:54:18;;;;;;;7.30;1.30;;;;;;;11.27;96.25;98974.50;343714;28;1165;-78
2022/12/24 00:54:30;;;;;;;8.68;1.50;;;;;;;11.24;96.27;98974.63;343985;28;1275;-78
2022/12/24 00:54:42;;;;;;;5.95;1.60;;;;;;;11.23;96.00;98974.69;343849;28;1067;-79
2022/12/24 00:54:54;;;;;;;6.05;1.75;;;;;;;11.20;95.94;98968.72;342933;28;1129;-77
2022/12/24 00:55:07;;;;;;;5.63;1.50;;;;;;;11.17;96.62;98965.44;343682;28;1306;-78
2022/12/24 00:55:19;;;;;;;6.95;1.65;;;;;;;11.18;96.86;98986.16;342289;28;1252;-78
2022/12/24 00:55:31;;;;;;;6.55;1.80;;;;;;;11.24;96.46;98966.81;344076;28;1014;-79
2022/12/24 00:55:43;;;;;;;4.57;1.63;;;;;;;11.30;96.26;98969.16;344552;28;1063;-78
2022/12/24 00:55:54;;;;;;;5.30;1.50;;;;;;;11.31;96.09;98970.00;345130;28;757;-79
2022/12/24 00:56:07;;;;;;;7.63;1.63;;;;;;;11.26;96.37;98966.75;345673;28;1206;-78
2022/12/24 00:56:19;;;;;;;6.88;1.77;;;;;;;11.31;96.37;98978.66;346145;28;1045;-79
2022/12/24 00:56:32;;;;;;;4.28;1.70;;;;;;;11.35;95.98;98974.16;344780;28;1111;-79
2022/12/24 00:56:44;;;;;;;5.65;1.80;;;;;;;11.33;95.99;98983.78;343614;28;2087;-77
2022/12/24 00:56:56;;;;;;;6.40;1.55;;;;;;;11.35;95.79;98971.56;341886;28;1039;-78
2022/12/24 00:57:08;;;;;;;7.75;1.67;;;;;;;11.40;95.60;98986.00;342029;28;1253;-77
2022/12/24 00:57:20;;;;;;;7.50;1.73;;;;;;;11.36;95.77;98994.03;341683;28;1077;-78
2022/12/24 00:57:32;;;;;;;8.68;1.92;;;;;;;11.36;95.78;98960.22;342553;28;1091;-78
2022/12/24 00:57:44;;;;;;;9.40;1.95;;;;;;;11.31;95.75;98977.81;342252;28;1079;-79
2022/12/24 00:57:56;;;;;;;9.23;2.10;;;;;;;11.38;95.14;98981.81;342400;28;1095;-79
2022/12/24 00:58:08;;;;;;;6.40;1.85;;;;;;;11.35;95.70;98968.94;342499;28;1177;-79
2022/12/24 00:58:21;;;;;;;5.10;1.67;;;;;;;11.37;95.26;98970.56;343782;28;1499;-79
2022/12/24 00:58:33;;;;;;;7.40;1.65;;;;;;;11.38;95.11;98969.63;343768;28;1462;-78
2022/12/24 00:58:45;;;;;;;7.85;1.55;;;;;;;11.40;95.11;98970.41;344897;28;1187;-78
2022/12/24 00:58:57;;;;;;;9.32;1.48;;;;;;;11.36;95.30;98974.06;345279;28;1182;-78
2022/12/24 00:59:09;;;;;;;6.63;1.40;;;;;;;11.34;94.97;98970.69;345949;28;1852;-79
2022/12/24 00:59:21;;;;;;;5.78;1.48;;;;;;;11.34;95.25;98980.25;345883;28;1538;-79
2022/12/24 00:59:33;;;;;;;5.78;1.70;;;;;;;11.33;94.84;98978.59;346074;28;1231;-79